Kenilworth, NJ

4:14 AM EDT on July 27, 2016 (GMT -0400)
Kenilworth, N.J. | | Change Station

Elev 92 ft 40.67 °N, 74.30 °W | Updated 10 minutes ago

Scattered Clouds
Scattered Clouds
73.7 °F
Feels Like 75 °F
N
0.0
Wind Variable Wind from NW
Gusts 1.0 mph

Today
High -- | Low -- °F
--% Chance of Precip.
Yesterday
High -- | Low -- °F
Precip. -- in
Pressure 29.95 in
Visibility 10.0 miles
Clouds Scattered Clouds 6500 ft
Heat Index 75 °F
Dew Point 65 °F
Humidity 73%
Rainfall 0.00 in
Snow Depth Not available.
5:49 AM 8:17 PM
Last Quarter, 46% visible
METAR KLDJ 270815Z AUTO 00000KT 10SM SCT065 24/17 A2995 RMK AO2 T02350167
Pressure 29.95 in
Visibility 10.0 miles
Clouds Scattered Clouds 6500 ft
Heat Index 75 °F
Dew Point 65 °F
Humidity 73%
Rainfall 0.00 in
Snow Depth Not available.
5:49 AM 8:17 PM
Last Quarter, 46% visible
METAR KLDJ 270815Z AUTO 00000KT 10SM SCT065 24/17 A2995 RMK AO2 T02350167

10-Day Weather Forecast

Almanac

Astronomy

Jul. 27, 2016 Rise Set
Actual Time
Civil Twilight
Nautical Twilight
Astronomical Twilight
Moon
Length of Visible Light
Length of Day
Tomorrow will be .
, % of the Moon is Illuminated

Today's Extremes

State Highs State Lows

Community

WunderPhotos

Upload Photos

1,927,818 photos uploaded!

WunderBlog® & News

Nearby

Air Quality

  Air Quality AQ Index Pollutant
Not available.

Snow Depth

Station Depth Elevation

Earthquake Activity

City Distance Mag. Time & Date
Minimum magnitude displayed is 2.5.

Coastal Water Temperatures

Place Temperature

Stations

Nearby Weather Stations

Station Location Temp. Windchill Dew Point Humidity Wind Precip. Elev Updated Type
                   

Watches & Warnings

There are currently no watches in effect.